sensor_id;sensor_type;location;lat;lon;timestamp;P1;durP1;ratioP1;P2;durP2;ratioP2
6825;SDS011;3451;52.476;13.316;2023-02-03T00:01:21;8.13;;;3.43;;
6825;SDS011;3451;52.476;13.316;2023-02-03T00:03:48;12.50;;;3.73;;
6825;SDS011;3451;52.476;13.316;2023-02-03T00:06:14;15.20;;;3.47;;
6825;SDS011;3451;52.476;13.316;2023-02-03T00:08:40;6.87;;;3.00;;
6825;SDS011;3451;52.476;13.316;2023-02-03T00:11:07;12.77;;;3.87;;
6825;SDS011;3451;52.476;13.316;2023-02-03T00:13:33;13.03;;;3.97;;
6825;SDS011;3451;52.476;13.316;2023-02-03T00:16:00;5.63;;;2.97;;
6825;SDS011;3451;52.476;13.316;2023-02-03T00:18:27;12.43;;;3.40;;
6825;SDS011;3451;52.476;13.316;2023-02-03T00:20:53;10.27;;;3.10;;
6825;SDS011;3451;52.476;13.316;2023-02-03T00:23:19;10.53;;;3.77;;
6825;SDS011;3451;52.476;13.316;2023-02-03T00:25:45;6.53;;;3.03;;
6825;SDS011;3451;52.476;13.316;2023-02-03T00:28:12;7.73;;;3.40;;
6825;SDS011;3451;52.476;13.316;2023-02-03T00:30:38;12.50;;;3.63;;
6825;SDS011;3451;52.476;13.316;2023-02-03T00:33:04;9.70;;;3.93;;
6825;SDS011;3451;52.476;13.316;2023-02-03T00:35:31;10.30;;;3.20;;
6825;SDS011;3451;52.476;13.316;2023-02-03T00:37:57;9.23;;;3.50;;
6825;SDS011;3451;52.476;13.316;2023-02-03T00:40:25;6.27;;;3.07;;
6825;SDS011;3451;52.476;13.316;2023-02-03T00:42:52;10.37;;;3.70;;
6825;SDS011;3451;52.476;13.316;2023-02-03T00:45:18;11.80;;;3.30;;
6825;SDS011;3451;52.476;13.316;2023-02-03T00:47:44;10.40;;;3.90;;
6825;SDS011;3451;52.476;13.316;2023-02-03T00:50:11;11.70;;;3.50;;
6825;SDS011;3451;52.476;13.316;2023-02-03T00:52:37;8.30;;;3.60;;
6825;SDS011;3451;52.476;13.316;2023-02-03T00:55:04;9.40;;;3.73;;
6825;SDS011;3451;52.476;13.316;2023-02-03T00:57:31;11.67;;;3.57;;
6825;SDS011;3451;52.476;13.316;2023-02-03T00:59:57;12.10;;;4.00;;
6825;SDS011;3451;52.476;13.316;2023-02-03T01:02:23;10.87;;;3.90;;
6825;SDS011;3451;52.476;13.316;2023-02-03T01:04:50;10.67;;;3.77;;
6825;SDS011;3451;52.476;13.316;2023-02-03T01:07:16;13.63;;;4.23;;
6825;SDS011;3451;52.476;13.316;2023-02-03T01:09:42;7.93;;;3.97;;
6825;SDS011;3451;52.476;13.316;2023-02-03T01:12:08;9.40;;;3.60;;
6825;SDS011;3451;52.476;13.316;2023-02-03T01:14:35;10.37;;;3.70;;
6825;SDS011;3451;52.476;13.316;2023-02-03T01:17:01;14.60;;;3.70;;
6825;SDS011;3451;52.476;13.316;2023-02-03T01:19:27;13.23;;;4.10;;
6825;SDS011;3451;52.476;13.316;2023-02-03T01:21:54;5.87;;;3.97;;
6825;SDS011;3451;52.476;13.316;2023-02-03T01:24:20;8.67;;;3.57;;
6825;SDS011;3451;52.476;13.316;2023-02-03T01:26:46;11.00;;;3.80;;
6825;SDS011;3451;52.476;13.316;2023-02-03T01:29:12;10.83;;;4.57;;
6825;SDS011;3451;52.476;13.316;2023-02-03T01:31:39;12.83;;;4.70;;
6825;SDS011;3451;52.476;13.316;2023-02-03T01:34:12;16.17;;;5.77;;
6825;SDS011;3451;52.476;13.316;2023-02-03T01:36:39;10.23;;;4.90;;
6825;SDS011;3451;52.476;13.316;2023-02-03T01:39:05;11.17;;;4.57;;
6825;SDS011;3451;52.476;13.316;2023-02-03T01:41:33;9.90;;;5.20;;
6825;SDS011;3451;52.476;13.316;2023-02-03T01:43:59;9.07;;;5.13;;
6825;SDS011;3451;52.476;13.316;2023-02-03T01:46:27;8.90;;;4.27;;
6825;SDS011;3451;52.476;13.316;2023-02-03T01:48:58;7.63;;;4.43;;
6825;SDS011;3451;52.476;13.316;2023-02-03T01:51:25;12.47;;;4.73;;
6825;SDS011;3451;52.476;13.316;2023-02-03T01:53:52;12.23;;;5.17;;
6825;SDS011;3451;52.476;13.316;2023-02-03T01:56:19;9.50;;;4.70;;
6825;SDS011;3451;52.476;13.316;2023-02-03T01:58:45;11.57;;;4.43;;
6825;SDS011;3451;52.476;13.316;2023-02-03T02:01:12;8.73;;;4.83;;
6825;SDS011;3451;52.476;13.316;2023-02-03T02:03:40;11.77;;;4.57;;
6825;SDS011;3451;52.476;13.316;2023-02-03T02:06:10;9.13;;;4.07;;
6825;SDS011;3451;52.476;13.316;2023-02-03T02:08:37;6.73;;;4.10;;
6825;SDS011;3451;52.476;13.316;2023-02-03T02:11:05;8.63;;;4.30;;
6825;SDS011;3451;52.476;13.316;2023-02-03T02:13:32;7.00;;;4.30;;
6825;SDS011;3451;52.476;13.316;2023-02-03T02:16:21;8.67;;;4.57;;
6825;SDS011;3451;52.476;13.316;2023-02-03T02:19:04;6.73;;;4.23;;
6825;SDS011;3451;52.476;13.316;2023-02-03T02:21:39;7.27;;;3.90;;
6825;SDS011;3451;52.476;13.316;2023-02-03T02:26:44;6.23;;;3.67;;
6825;SDS011;3451;52.476;13.316;2023-02-03T02:29:18;5.40;;;3.17;;
6825;SDS011;3451;52.476;13.316;2023-02-03T02:31:52;4.27;;;3.43;;
6825;SDS011;3451;52.476;13.316;2023-02-03T02:34:31;7.60;;;3.43;;
6825;SDS011;3451;52.476;13.316;2023-02-03T02:37:05;5.10;;;3.47;;
6825;SDS011;3451;52.476;13.316;2023-02-03T02:39:36;5.43;;;3.63;;
6825;SDS011;3451;52.476;13.316;2023-02-03T02:42:05;4.00;;;3.17;;
6825;SDS011;3451;52.476;13.316;2023-02-03T02:44:34;5.83;;;3.40;;
6825;SDS011;3451;52.476;13.316;2023-02-03T02:47:04;6.87;;;3.80;;
6825;SDS011;3451;52.476;13.316;2023-02-03T02:49:34;6.13;;;3.40;;
6825;SDS011;3451;52.476;13.316;2023-02-03T02:52:03;5.43;;;3.23;;
6825;SDS011;3451;52.476;13.316;2023-02-03T02:54:30;3.40;;;2.50;;
6825;SDS011;3451;52.476;13.316;2023-02-03T02:56:59;5.20;;;2.53;;
6825;SDS011;3451;52.476;13.316;2023-02-03T02:59:26;5.57;;;2.67;;
6825;SDS011;3451;52.476;13.316;2023-02-03T03:01:52;4.50;;;2.90;;
6825;SDS011;3451;52.476;13.316;2023-02-03T03:04:20;3.53;;;2.50;;
6825;SDS011;3451;52.476;13.316;2023-02-03T03:06:50;3.53;;;2.83;;
6825;SDS011;3451;52.476;13.316;2023-02-03T03:09:19;4.40;;;2.87;;
6825;SDS011;3451;52.476;13.316;2023-02-03T03:11:48;4.27;;;2.87;;
6825;SDS011;3451;52.476;13.316;2023-02-03T03:14:16;3.60;;;2.30;;
6825;SDS011;3451;52.476;13.316;2023-02-03T03:16:45;3.47;;;2.30;;
6825;SDS011;3451;52.476;13.316;2023-02-03T03:19:14;3.57;;;2.03;;
6825;SDS011;3451;52.476;13.316;2023-02-03T03:21:45;3.10;;;2.10;;
6825;SDS011;3451;52.476;13.316;2023-02-03T03:24:13;5.00;;;2.13;;
6825;SDS011;3451;52.476;13.316;2023-02-03T03:26:46;2.80;;;2.20;;
6825;SDS011;3451;52.476;13.316;2023-02-03T03:29:25;2.67;;;2.00;;
6825;SDS011;3451;52.476;13.316;2023-02-03T03:31:55;2.03;;;1.67;;
6825;SDS011;3451;52.476;13.316;2023-02-03T03:34:21;2.30;;;1.60;;
6825;SDS011;3451;52.476;13.316;2023-02-03T03:36:53;1.90;;;1.50;;
6825;SDS011;3451;52.476;13.316;2023-02-03T03:39:22;2.00;;;1.67;;
6825;SDS011;3451;52.476;13.316;2023-02-03T03:44:59;2.20;;;1.40;;
6825;SDS011;3451;52.476;13.316;2023-02-03T03:47:35;2.40;;;1.50;;
6825;SDS011;3451;52.476;13.316;2023-02-03T03:50:03;1.80;;;1.57;;
6825;SDS011;3451;52.476;13.316;2023-02-03T03:52:31;2.13;;;1.40;;
6825;SDS011;3451;52.476;13.316;2023-02-03T03:55:00;2.10;;;1.37;;
6825;SDS011;3451;52.476;13.316;2023-02-03T03:57:29;2.13;;;1.47;;
6825;SDS011;3451;52.476;13.316;2023-02-03T03:59:57;2.00;;;1.43;;
6825;SDS011;3451;52.476;13.316;2023-02-03T04:02:25;1.80;;;1.50;;
6825;SDS011;3451;52.476;13.316;2023-02-03T04:04:51;2.57;;;1.70;;
6825;SDS011;3451;52.476;13.316;2023-02-03T04:07:19;1.50;;;1.40;;
6825;SDS011;3451;52.476;13.316;2023-02-03T04:09:45;2.07;;;1.87;;
6825;SDS011;3451;52.476;13.316;2023-02-03T04:12:18;2.30;;;1.63;;
6825;SDS011;3451;52.476;13.316;2023-02-03T04:14:46;2.43;;;2.00;;
6825;SDS011;3451;52.476;13.316;2023-02-03T04:17:12;2.40;;;2.20;;
6825;SDS011;3451;52.476;13.316;2023-02-03T04:19:39;2.40;;;2.20;;
6825;SDS011;3451;52.476;13.316;2023-02-03T04:22:05;2.37;;;2.07;;
6825;SDS011;3451;52.476;13.316;2023-02-03T04:24:31;2.83;;;2.30;;
6825;SDS011;3451;52.476;13.316;2023-02-03T04:26:57;3.40;;;2.20;;
6825;SDS011;3451;52.476;13.316;2023-02-03T04:29:24;2.90;;;2.20;;
6825;SDS011;3451;52.476;13.316;2023-02-03T04:31:50;2.90;;;2.60;;
6825;SDS011;3451;52.476;13.316;2023-02-03T04:34:16;3.00;;;2.70;;
6825;SDS011;3451;52.476;13.316;2023-02-03T04:36:44;4.43;;;3.43;;
6825;SDS011;3451;52.476;13.316;2023-02-03T04:39:10;3.43;;;3.13;;
6825;SDS011;3451;52.476;13.316;2023-02-03T04:41:36;3.73;;;3.40;;
6825;SDS011;3451;52.476;13.316;2023-02-03T04:44:02;4.27;;;3.50;;
6825;SDS011;3451;52.476;13.316;2023-02-03T04:46:29;4.40;;;3.87;;
6825;SDS011;3451;52.476;13.316;2023-02-03T04:48:55;4.10;;;3.70;;
6825;SDS011;3451;52.476;13.316;2023-02-03T04:51:21;4.40;;;4.00;;
6825;SDS011;3451;52.476;13.316;2023-02-03T04:53:48;5.00;;;4.30;;
6825;SDS011;3451;52.476;13.316;2023-02-03T04:56:14;6.20;;;4.80;;
6825;SDS011;3451;52.476;13.316;2023-02-03T04:58:41;7.23;;;5.13;;
6825;SDS011;3451;52.476;13.316;2023-02-03T05:01:08;7.80;;;5.53;;
6825;SDS011;3451;52.476;13.316;2023-02-03T05:03:35;7.60;;;5.90;;
6825;SDS011;3451;52.476;13.316;2023-02-03T05:06:02;8.63;;;6.43;;
6825;SDS011;3451;52.476;13.316;2023-02-03T05:08:28;8.90;;;7.03;;
6825;SDS011;3451;52.476;13.316;2023-02-03T05:10:55;13.30;;;7.70;;
6825;SDS011;3451;52.476;13.316;2023-02-03T05:13:21;11.73;;;7.83;;
6825;SDS011;3451;52.476;13.316;2023-02-03T05:15:48;10.10;;;7.77;;
6825;SDS011;3451;52.476;13.316;2023-02-03T05:18:14;11.43;;;8.10;;
6825;SDS011;3451;52.476;13.316;2023-02-03T05:20:40;12.53;;;8.07;;
6825;SDS011;3451;52.476;13.316;2023-02-03T05:23:06;14.43;;;9.23;;
6825;SDS011;3451;52.476;13.316;2023-02-03T05:25:33;15.17;;;9.20;;
6825;SDS011;3451;52.476;13.316;2023-02-03T05:27:59;16.00;;;10.67;;
6825;SDS011;3451;52.476;13.316;2023-02-03T05:30:25;14.93;;;10.30;;
6825;SDS011;3451;52.476;13.316;2023-02-03T05:32:52;15.90;;;10.80;;
6825;SDS011;3451;52.476;13.316;2023-02-03T05:35:18;19.30;;;11.63;;
6825;SDS011;3451;52.476;13.316;2023-02-03T05:37:44;17.87;;;11.53;;
6825;SDS011;3451;52.476;13.316;2023-02-03T05:40:11;15.30;;;10.83;;
6825;SDS011;3451;52.476;13.316;2023-02-03T05:42:56;20.93;;;12.13;;
6825;SDS011;3451;52.476;13.316;2023-02-03T05:45:23;20.57;;;12.60;;
6825;SDS011;3451;52.476;13.316;2023-02-03T05:47:49;18.93;;;12.77;;
6825;SDS011;3451;52.476;13.316;2023-02-03T05:50:15;20.60;;;13.07;;
6825;SDS011;3451;52.476;13.316;2023-02-03T05:52:42;20.40;;;12.37;;
6825;SDS011;3451;52.476;13.316;2023-02-03T05:55:08;20.03;;;12.37;;
6825;SDS011;3451;52.476;13.316;2023-02-03T05:57:34;18.20;;;11.93;;
6825;SDS011;3451;52.476;13.316;2023-02-03T06:00:01;21.30;;;13.37;;
6825;SDS011;3451;52.476;13.316;2023-02-03T06:02:27;20.60;;;12.57;;
6825;SDS011;3451;52.476;13.316;2023-02-03T06:04:53;21.47;;;12.73;;
6825;SDS011;3451;52.476;13.316;2023-02-03T06:07:20;23.07;;;13.40;;
6825;SDS011;3451;52.476;13.316;2023-02-03T06:09:46;21.10;;;12.40;;
6825;SDS011;3451;52.476;13.316;2023-02-03T06:12:13;19.60;;;12.83;;
6825;SDS011;3451;52.476;13.316;2023-02-03T06:14:39;21.60;;;12.20;;
6825;SDS011;3451;52.476;13.316;2023-02-03T06:17:06;18.70;;;12.13;;
6825;SDS011;3451;52.476;13.316;2023-02-03T06:19:32;21.30;;;12.80;;
6825;SDS011;3451;52.476;13.316;2023-02-03T06:21:58;20.47;;;11.70;;
6825;SDS011;3451;52.476;13.316;2023-02-03T06:24:24;19.53;;;12.70;;
6825;SDS011;3451;52.476;13.316;2023-02-03T06:26:51;20.43;;;12.40;;
6825;SDS011;3451;52.476;13.316;2023-02-03T06:29:17;19.30;;;12.20;;
6825;SDS011;3451;52.476;13.316;2023-02-03T06:31:43;20.57;;;12.77;;
6825;SDS011;3451;52.476;13.316;2023-02-03T06:34:10;22.30;;;12.50;;
6825;SDS011;3451;52.476;13.316;2023-02-03T06:36:36;16.83;;;11.57;;
6825;SDS011;3451;52.476;13.316;2023-02-03T06:39:02;23.83;;;13.20;;
6825;SDS011;3451;52.476;13.316;2023-02-03T06:41:29;18.97;;;12.47;;
6825;SDS011;3451;52.476;13.316;2023-02-03T06:43:55;18.30;;;11.97;;
6825;SDS011;3451;52.476;13.316;2023-02-03T06:46:22;19.00;;;12.13;;
6825;SDS011;3451;52.476;13.316;2023-02-03T06:48:48;19.90;;;12.40;;
6825;SDS011;3451;52.476;13.316;2023-02-03T06:51:14;17.40;;;12.40;;
6825;SDS011;3451;52.476;13.316;2023-02-03T06:53:40;16.40;;;11.63;;
6825;SDS011;3451;52.476;13.316;2023-02-03T06:56:07;20.90;;;11.83;;
6825;SDS011;3451;52.476;13.316;2023-02-03T06:58:33;17.40;;;11.23;;
6825;SDS011;3451;52.476;13.316;2023-02-03T07:00:59;18.20;;;11.60;;
6825;SDS011;3451;52.476;13.316;2023-02-03T07:03:26;15.37;;;11.47;;
6825;SDS011;3451;52.476;13.316;2023-02-03T07:05:52;16.63;;;11.30;;
6825;SDS011;3451;52.476;13.316;2023-02-03T07:08:18;19.23;;;12.17;;
6825;SDS011;3451;52.476;13.316;2023-02-03T07:10:45;17.87;;;11.73;;
6825;SDS011;3451;52.476;13.316;2023-02-03T07:13:11;17.67;;;11.43;;
6825;SDS011;3451;52.476;13.316;2023-02-03T07:15:37;16.67;;;12.00;;
6825;SDS011;3451;52.476;13.316;2023-02-03T07:18:04;19.03;;;11.00;;
6825;SDS011;3451;52.476;13.316;2023-02-03T07:20:30;17.93;;;11.13;;
6825;SDS011;3451;52.476;13.316;2023-02-03T07:22:58;16.73;;;11.13;;
6825;SDS011;3451;52.476;13.316;2023-02-03T07:25:24;17.17;;;10.60;;
6825;SDS011;3451;52.476;13.316;2023-02-03T07:27:51;18.10;;;10.67;;
6825;SDS011;3451;52.476;13.316;2023-02-03T07:30:18;17.33;;;10.97;;
6825;SDS011;3451;52.476;13.316;2023-02-03T07:32:47;18.93;;;10.63;;
6825;SDS011;3451;52.476;13.316;2023-02-03T07:35:14;14.13;;;10.10;;
6825;SDS011;3451;52.476;13.316;2023-02-03T07:37:41;16.30;;;10.40;;
6825;SDS011;3451;52.476;13.316;2023-02-03T07:40:08;13.97;;;9.83;;
6825;SDS011;3451;52.476;13.316;2023-02-03T07:42:35;13.70;;;9.20;;
6825;SDS011;3451;52.476;13.316;2023-02-03T07:45:01;11.40;;;8.90;;
6825;SDS011;3451;52.476;13.316;2023-02-03T07:47:27;13.50;;;9.50;;
6825;SDS011;3451;52.476;13.316;2023-02-03T07:49:53;14.13;;;9.23;;
6825;SDS011;3451;52.476;13.316;2023-02-03T07:52:20;13.57;;;9.47;;
6825;SDS011;3451;52.476;13.316;2023-02-03T07:54:47;13.30;;;8.87;;
6825;SDS011;3451;52.476;13.316;2023-02-03T07:57:13;11.80;;;9.13;;
6825;SDS011;3451;52.476;13.316;2023-02-03T07:59:39;12.33;;;8.83;;
6825;SDS011;3451;52.476;13.316;2023-02-03T08:02:07;12.37;;;8.40;;
6825;SDS011;3451;52.476;13.316;2023-02-03T08:04:34;13.83;;;8.20;;
6825;SDS011;3451;52.476;13.316;2023-02-03T08:07:00;10.67;;;8.07;;
6825;SDS011;3451;52.476;13.316;2023-02-03T08:09:26;10.93;;;8.53;;
6825;SDS011;3451;52.476;13.316;2023-02-03T08:11:53;11.23;;;7.60;;
6825;SDS011;3451;52.476;13.316;2023-02-03T08:14:19;11.23;;;7.30;;
6825;SDS011;3451;52.476;13.316;2023-02-03T08:16:45;8.80;;;6.80;;
6825;SDS011;3451;52.476;13.316;2023-02-03T08:19:11;8.80;;;6.73;;
6825;SDS011;3451;52.476;13.316;2023-02-03T08:21:38;9.50;;;6.77;;
6825;SDS011;3451;52.476;13.316;2023-02-03T08:24:04;9.33;;;6.60;;
6825;SDS011;3451;52.476;13.316;2023-02-03T08:26:30;12.70;;;6.90;;
6825;SDS011;3451;52.476;13.316;2023-02-03T08:28:57;10.33;;;6.47;;
6825;SDS011;3451;52.476;13.316;2023-02-03T08:31:23;8.93;;;6.57;;
6825;SDS011;3451;52.476;13.316;2023-02-03T08:33:49;8.50;;;5.90;;
6825;SDS011;3451;52.476;13.316;2023-02-03T08:36:16;7.67;;;5.87;;
6825;SDS011;3451;52.476;13.316;2023-02-03T08:38:42;8.50;;;5.63;;
6825;SDS011;3451;52.476;13.316;2023-02-03T08:41:12;9.27;;;6.47;;
6825;SDS011;3451;52.476;13.316;2023-02-03T08:43:39;7.03;;;5.33;;
6825;SDS011;3451;52.476;13.316;2023-02-03T08:46:06;9.73;;;5.73;;
6825;SDS011;3451;52.476;13.316;2023-02-03T08:48:33;10.67;;;5.60;;
6825;SDS011;3451;52.476;13.316;2023-02-03T08:50:59;7.80;;;5.93;;
6825;SDS011;3451;52.476;13.316;2023-02-03T08:53:25;8.80;;;5.23;;
6825;SDS011;3451;52.476;13.316;2023-02-03T08:55:52;11.50;;;5.50;;
6825;SDS011;3451;52.476;13.316;2023-02-03T08:58:18;6.77;;;4.80;;
6825;SDS011;3451;52.476;13.316;2023-02-03T09:00:44;7.33;;;5.30;;
6825;SDS011;3451;52.476;13.316;2023-02-03T09:03:14;7.27;;;5.00;;
6825;SDS011;3451;52.476;13.316;2023-02-03T09:05:40;6.80;;;4.90;;
6825;SDS011;3451;52.476;13.316;2023-02-03T09:08:06;8.53;;;4.97;;
6825;SDS011;3451;52.476;13.316;2023-02-03T09:10:32;4.43;;;4.03;;
6825;SDS011;3451;52.476;13.316;2023-02-03T09:12:59;5.63;;;4.37;;
6825;SDS011;3451;52.476;13.316;2023-02-03T09:15:25;4.37;;;3.97;;
6825;SDS011;3451;52.476;13.316;2023-02-03T09:17:55;5.30;;;4.10;;
6825;SDS011;3451;52.476;13.316;2023-02-03T09:20:22;6.03;;;3.97;;
6825;SDS011;3451;52.476;13.316;2023-02-03T09:22:52;6.67;;;4.33;;
6825;SDS011;3451;52.476;13.316;2023-02-03T09:25:20;5.10;;;3.97;;
6825;SDS011;3451;52.476;13.316;2023-02-03T09:27:46;4.73;;;3.60;;
6825;SDS011;3451;52.476;13.316;2023-02-03T09:30:13;4.93;;;3.57;;
6825;SDS011;3451;52.476;13.316;2023-02-03T09:32:39;6.03;;;3.53;;
6825;SDS011;3451;52.476;13.316;2023-02-03T09:35:05;6.17;;;3.77;;
6825;SDS011;3451;52.476;13.316;2023-02-03T09:37:33;7.93;;;3.70;;
6825;SDS011;3451;52.476;13.316;2023-02-03T09:39:59;5.93;;;3.73;;
6825;SDS011;3451;52.476;13.316;2023-02-03T09:42:27;4.50;;;3.40;;
6825;SDS011;3451;52.476;13.316;2023-02-03T09:45:32;3.83;;;3.47;;
6825;SDS011;3451;52.476;13.316;2023-02-03T09:47:51;4.13;;;3.20;;
6825;SDS011;3451;52.476;13.316;2023-02-03T09:50:21;4.33;;;2.97;;
6825;SDS011;3451;52.476;13.316;2023-02-03T09:52:48;5.57;;;3.10;;
6825;SDS011;3451;52.476;13.316;2023-02-03T09:58:02;4.93;;;3.07;;
6825;SDS011;3451;52.476;13.316;2023-02-03T10:00:35;4.50;;;3.17;;
6825;SDS011;3451;52.476;13.316;2023-02-03T10:03:14;4.33;;;3.67;;
6825;SDS011;3451;52.476;13.316;2023-02-03T10:05:52;5.03;;;2.90;;
6825;SDS011;3451;52.476;13.316;2023-02-03T10:11:00;5.20;;;3.20;;
6825;SDS011;3451;52.476;13.316;2023-02-03T10:18:49;3.67;;;2.90;;
6825;SDS011;3451;52.476;13.316;2023-02-03T10:21:18;5.40;;;3.10;;
6825;SDS011;3451;52.476;13.316;2023-02-03T10:23:46;6.17;;;2.80;;
6825;SDS011;3451;52.476;13.316;2023-02-03T10:26:15;4.17;;;2.50;;
6825;SDS011;3451;52.476;13.316;2023-02-03T10:28:55;6.00;;;2.67;;
6825;SDS011;3451;52.476;13.316;2023-02-03T10:31:23;4.97;;;2.73;;
6825;SDS011;3451;52.476;13.316;2023-02-03T10:33:59;5.53;;;2.80;;
6825;SDS011;3451;52.476;13.316;2023-02-03T10:36:30;3.13;;;2.53;;
6825;SDS011;3451;52.476;13.316;2023-02-03T10:39:00;3.77;;;2.53;;
6825;SDS011;3451;52.476;13.316;2023-02-03T10:41:28;5.63;;;2.70;;
6825;SDS011;3451;52.476;13.316;2023-02-03T10:43:55;4.23;;;2.50;;
6825;SDS011;3451;52.476;13.316;2023-02-03T10:46:26;4.70;;;2.27;;
6825;SDS011;3451;52.476;13.316;2023-02-03T10:48:53;5.43;;;2.33;;
6825;SDS011;3451;52.476;13.316;2023-02-03T10:51:20;6.60;;;1.83;;
6825;SDS011;3451;52.476;13.316;2023-02-03T10:53:47;4.60;;;1.53;;
6825;SDS011;3451;52.476;13.316;2023-02-03T10:56:19;4.50;;;1.50;;
6825;SDS011;3451;52.476;13.316;2023-02-03T10:58:50;4.10;;;1.20;;
6825;SDS011;3451;52.476;13.316;2023-02-03T11:01:18;2.90;;;1.10;;
6825;SDS011;3451;52.476;13.316;2023-02-03T11:03:59;4.37;;;1.20;;
6825;SDS011;3451;52.476;13.316;2023-02-03T11:06:26;6.13;;;1.37;;
6825;SDS011;3451;52.476;13.316;2023-02-03T11:08:54;8.37;;;1.97;;
6825;SDS011;3451;52.476;13.316;2023-02-03T11:11:21;12.23;;;1.53;;
6825;SDS011;3451;52.476;13.316;2023-02-03T11:16:25;8.77;;;1.90;;
6825;SDS011;3451;52.476;13.316;2023-02-03T11:19:00;7.70;;;1.93;;
6825;SDS011;3451;52.476;13.316;2023-02-03T11:24:17;5.93;;;1.53;;
6825;SDS011;3451;52.476;13.316;2023-02-03T11:26:46;7.63;;;1.90;;
6825;SDS011;3451;52.476;13.316;2023-02-03T11:29:17;11.57;;;2.70;;
6825;SDS011;3451;52.476;13.316;2023-02-03T11:31:47;15.73;;;2.63;;
6825;SDS011;3451;52.476;13.316;2023-02-03T11:34:16;12.60;;;2.77;;
6825;SDS011;3451;52.476;13.316;2023-02-03T11:36:42;13.00;;;2.57;;
6825;SDS011;3451;52.476;13.316;2023-02-03T11:39:10;14.17;;;2.80;;
6825;SDS011;3451;52.476;13.316;2023-02-03T11:41:38;19.30;;;3.80;;
6825;SDS011;3451;52.476;13.316;2023-02-03T11:44:11;12.23;;;2.53;;
6825;SDS011;3451;52.476;13.316;2023-02-03T11:46:38;12.37;;;2.80;;
6825;SDS011;3451;52.476;13.316;2023-02-03T11:49:10;13.37;;;3.20;;
6825;SDS011;3451;52.476;13.316;2023-02-03T11:51:44;15.73;;;2.80;;
6825;SDS011;3451;52.476;13.316;2023-02-03T12:02:07;17.80;;;3.43;;
6825;SDS011;3451;52.476;13.316;2023-02-03T12:04:58;14.43;;;3.03;;
6825;SDS011;3451;52.476;13.316;2023-02-03T12:10:26;13.80;;;3.13;;
6825;SDS011;3451;52.476;13.316;2023-02-03T12:13:06;17.73;;;3.67;;
6825;SDS011;3451;52.476;13.316;2023-02-03T12:15:55;22.63;;;4.30;;
6825;SDS011;3451;52.476;13.316;2023-02-03T12:18:30;12.80;;;2.93;;
6825;SDS011;3451;52.476;13.316;2023-02-03T12:23:50;22.73;;;4.70;;
6825;SDS011;3451;52.476;13.316;2023-02-03T12:26:22;20.13;;;4.70;;
6825;SDS011;3451;52.476;13.316;2023-02-03T12:28:51;26.97;;;4.20;;
6825;SDS011;3451;52.476;13.316;2023-02-03T12:31:36;25.10;;;4.77;;
6825;SDS011;3451;52.476;13.316;2023-02-03T12:34:23;19.93;;;4.20;;
6825;SDS011;3451;52.476;13.316;2023-02-03T12:36:55;22.23;;;4.10;;
6825;SDS011;3451;52.476;13.316;2023-02-03T12:39:30;29.30;;;4.63;;
6825;SDS011;3451;52.476;13.316;2023-02-03T12:41:59;24.83;;;4.50;;
6825;SDS011;3451;52.476;13.316;2023-02-03T12:47:06;21.83;;;4.50;;
6825;SDS011;3451;52.476;13.316;2023-02-03T12:49:47;23.93;;;4.80;;
6825;SDS011;3451;52.476;13.316;2023-02-03T12:54:46;24.43;;;4.70;;
6825;SDS011;3451;52.476;13.316;2023-02-03T12:57:37;20.53;;;4.03;;
6825;SDS011;3451;52.476;13.316;2023-02-03T13:02:59;28.83;;;5.03;;
6825;SDS011;3451;52.476;13.316;2023-02-03T13:05:29;21.10;;;3.63;;
6825;SDS011;3451;52.476;13.316;2023-02-03T13:08:05;23.40;;;3.93;;
6825;SDS011;3451;52.476;13.316;2023-02-03T13:10:38;15.30;;;3.53;;
6825;SDS011;3451;52.476;13.316;2023-02-03T13:13:10;17.53;;;4.40;;
6825;SDS011;3451;52.476;13.316;2023-02-03T13:15:39;15.53;;;3.63;;
6825;SDS011;3451;52.476;13.316;2023-02-03T13:20:35;17.13;;;3.60;;
6825;SDS011;3451;52.476;13.316;2023-02-03T13:23:06;15.33;;;3.40;;
6825;SDS011;3451;52.476;13.316;2023-02-03T13:25:40;15.33;;;2.77;;
6825;SDS011;3451;52.476;13.316;2023-02-03T13:28:16;11.43;;;2.70;;
6825;SDS011;3451;52.476;13.316;2023-02-03T13:30:59;10.23;;;2.27;;
6825;SDS011;3451;52.476;13.316;2023-02-03T13:38:47;12.17;;;2.30;;
6825;SDS011;3451;52.476;13.316;2023-02-03T13:43:46;12.80;;;2.70;;
6825;SDS011;3451;52.476;13.316;2023-02-03T13:46:21;14.20;;;2.87;;
6825;SDS011;3451;52.476;13.316;2023-02-03T13:48:49;14.63;;;3.47;;
6825;SDS011;3451;52.476;13.316;2023-02-03T13:51:20;17.93;;;3.70;;
6825;SDS011;3451;52.476;13.316;2023-02-03T13:53:47;18.63;;;3.33;;
6825;SDS011;3451;52.476;13.316;2023-02-03T13:56:20;15.80;;;3.40;;
6825;SDS011;3451;52.476;13.316;2023-02-03T13:59:04;20.50;;;3.80;;
6825;SDS011;3451;52.476;13.316;2023-02-03T14:01:37;17.20;;;2.93;;
6825;SDS011;3451;52.476;13.316;2023-02-03T14:04:05;16.63;;;3.27;;
6825;SDS011;3451;52.476;13.316;2023-02-03T14:11:50;21.77;;;4.23;;
6825;SDS011;3451;52.476;13.316;2023-02-03T14:16:46;22.47;;;4.00;;
6825;SDS011;3451;52.476;13.316;2023-02-03T14:21:55;18.40;;;4.17;;
6825;SDS011;3451;52.476;13.316;2023-02-03T14:24:28;20.53;;;4.10;;
6825;SDS011;3451;52.476;13.316;2023-02-03T14:26:55;20.30;;;3.87;;
6825;SDS011;3451;52.476;13.316;2023-02-03T14:29:32;27.60;;;5.07;;
6825;SDS011;3451;52.476;13.316;2023-02-03T14:32:03;24.30;;;4.13;;
6825;SDS011;3451;52.476;13.316;2023-02-03T14:34:34;21.13;;;4.23;;
6825;SDS011;3451;52.476;13.316;2023-02-03T14:37:09;24.83;;;4.80;;
6825;SDS011;3451;52.476;13.316;2023-02-03T14:39:56;28.93;;;5.33;;
6825;SDS011;3451;52.476;13.316;2023-02-03T14:45:03;24.47;;;5.00;;
6825;SDS011;3451;52.476;13.316;2023-02-03T14:50:27;23.10;;;5.13;;
6825;SDS011;3451;52.476;13.316;2023-02-03T14:55:34;31.13;;;5.90;;
6825;SDS011;3451;52.476;13.316;2023-02-03T14:58:03;28.80;;;6.03;;
6825;SDS011;3451;52.476;13.316;2023-02-03T15:00:32;29.50;;;5.93;;
6825;SDS011;3451;52.476;13.316;2023-02-03T15:07:57;30.97;;;5.43;;
6825;SDS011;3451;52.476;13.316;2023-02-03T15:10:28;23.90;;;4.77;;
6825;SDS011;3451;52.476;13.316;2023-02-03T15:12:56;22.17;;;4.37;;
6825;SDS011;3451;52.476;13.316;2023-02-03T15:15:27;21.00;;;4.60;;
6825;SDS011;3451;52.476;13.316;2023-02-03T15:17:58;24.23;;;4.93;;
6825;SDS011;3451;52.476;13.316;2023-02-03T15:22:51;22.60;;;4.10;;
6825;SDS011;3451;52.476;13.316;2023-02-03T15:25:18;28.50;;;4.67;;
6825;SDS011;3451;52.476;13.316;2023-02-03T15:27:46;18.63;;;4.40;;
6825;SDS011;3451;52.476;13.316;2023-02-03T15:30:13;24.80;;;4.27;;
6825;SDS011;3451;52.476;13.316;2023-02-03T15:32:40;24.07;;;4.20;;
6825;SDS011;3451;52.476;13.316;2023-02-03T15:35:08;18.47;;;3.63;;
6825;SDS011;3451;52.476;13.316;2023-02-03T15:37:40;23.77;;;4.50;;
6825;SDS011;3451;52.476;13.316;2023-02-03T15:40:11;23.17;;;4.57;;
6825;SDS011;3451;52.476;13.316;2023-02-03T15:42:45;19.43;;;3.97;;
6825;SDS011;3451;52.476;13.316;2023-02-03T15:47:54;19.20;;;4.03;;
6825;SDS011;3451;52.476;13.316;2023-02-03T15:50:33;20.43;;;4.30;;
6825;SDS011;3451;52.476;13.316;2023-02-03T15:53:07;19.53;;;4.30;;
6825;SDS011;3451;52.476;13.316;2023-02-03T15:55:36;19.87;;;4.23;;
6825;SDS011;3451;52.476;13.316;2023-02-03T15:58:02;20.23;;;4.27;;
6825;SDS011;3451;52.476;13.316;2023-02-03T16:00:31;24.60;;;4.50;;
6825;SDS011;3451;52.476;13.316;2023-02-03T16:02:58;24.07;;;4.77;;
6825;SDS011;3451;52.476;13.316;2023-02-03T16:05:26;21.90;;;4.43;;
6825;SDS011;3451;52.476;13.316;2023-02-03T16:07:55;19.63;;;4.43;;
6825;SDS011;3451;52.476;13.316;2023-02-03T16:10:24;26.33;;;4.53;;
6825;SDS011;3451;52.476;13.316;2023-02-03T16:12:50;21.93;;;4.23;;
6825;SDS011;3451;52.476;13.316;2023-02-03T16:15:20;21.73;;;3.93;;
6825;SDS011;3451;52.476;13.316;2023-02-03T16:17:46;21.30;;;4.23;;
6825;SDS011;3451;52.476;13.316;2023-02-03T16:20:20;21.70;;;4.77;;
6825;SDS011;3451;52.476;13.316;2023-02-03T16:23:01;23.83;;;4.00;;